createdAt,value
2022-11-19T00:01:10.586Z,8.28
2022-11-19T00:03:39.990Z,8.57
2022-11-19T00:06:09.826Z,8.56
2022-11-19T00:08:36.618Z,8.57
2022-11-19T00:11:09.526Z,8.57
2022-11-19T00:13:37.495Z,8.56
2022-11-19T00:16:13.283Z,8.56
2022-11-19T00:18:40.816Z,8.41
2022-11-19T00:21:09.714Z,8.57
2022-11-19T00:23:37.102Z,8.56
2022-11-19T00:26:12.779Z,8.55
2022-11-19T00:28:39.988Z,8.55
2022-11-19T00:31:15.040Z,8.53
2022-11-19T00:33:43.584Z,8.50
2022-11-19T00:36:12.972Z,8.53
2022-11-19T00:38:39.658Z,8.52
2022-11-19T00:41:07.243Z,8.52
2022-11-19T00:43:49.670Z,8.52
2022-11-19T00:46:22.027Z,8.34
2022-11-19T00:48:50.369Z,8.47
2022-11-19T00:51:18.294Z,8.49
2022-11-19T00:53:45.080Z,8.49
2022-11-19T00:56:14.454Z,8.46
2022-11-19T00:58:41.766Z,8.41
2022-11-19T01:01:09.333Z,8.16
2022-11-19T01:03:36.776Z,8.48
2022-11-19T01:06:03.929Z,8.47
2022-11-19T01:08:30.420Z,8.46
2022-11-19T01:11:04.400Z,8.46
2022-11-19T01:13:37.169Z,8.47
2022-11-19T01:16:07.987Z,8.47
2022-11-19T01:18:36.131Z,8.46
2022-11-19T01:21:04.114Z,8.44
2022-11-19T01:23:30.844Z,8.45
2022-11-19T01:25:57.441Z,8.44
2022-11-19T01:28:24.175Z,8.43
2022-11-19T01:30:51.178Z,8.44
2022-11-19T01:33:17.808Z,8.45
2022-11-19T01:35:44.268Z,8.42
2022-11-19T01:38:10.783Z,8.42
2022-11-19T01:40:44.445Z,8.42
2022-11-19T01:43:12.927Z,8.42
2022-11-19T01:45:45.795Z,8.38
2022-11-19T01:48:22.703Z,8.37
2022-11-19T01:50:56.964Z,8.23
2022-11-19T01:53:29.510Z,8.34
2022-11-19T01:55:59.553Z,8.35
2022-11-19T01:58:26.161Z,8.36
2022-11-19T02:00:53.092Z,8.36
2022-11-19T02:03:19.818Z,8.33
2022-11-19T02:05:47.286Z,8.30
2022-11-19T02:08:44.714Z,8.26
2022-11-19T02:11:36.135Z,8.19
2022-11-19T02:14:24.307Z,8.15
2022-11-19T02:17:10.638Z,8.11
2022-11-19T02:20:04.738Z,8.05
2022-11-19T02:23:02.352Z,8.00
2022-11-19T02:25:47.033Z,7.97
2022-11-19T02:28:55.257Z,7.93
2022-11-19T02:31:31.078Z,7.84
2022-11-19T02:34:11.772Z,7.83
2022-11-19T02:36:47.260Z,7.76
2022-11-19T02:39:30.826Z,7.73
2022-11-19T02:42:17.045Z,7.67
2022-11-19T02:44:59.368Z,7.64
2022-11-19T02:47:32.181Z,7.61
2022-11-19T02:50:03.526Z,7.59
2022-11-19T02:52:30.178Z,7.55
2022-11-19T02:54:56.686Z,7.54
2022-11-19T02:57:23.190Z,7.35
2022-11-19T03:00:23.710Z,7.51
2022-11-19T03:03:12.627Z,7.51
2022-11-19T03:05:44.805Z,7.51
2022-11-19T03:08:11.700Z,7.55
2022-11-19T03:10:52.809Z,7.58
2022-11-19T03:13:42.995Z,7.47
2022-11-19T03:16:36.340Z,7.65
2022-11-19T03:19:24.174Z,7.67
2022-11-19T03:22:00.851Z,7.72
2022-11-19T03:24:36.266Z,7.75
2022-11-19T03:27:13.541Z,7.79
2022-11-19T03:29:44.348Z,7.70
2022-11-19T03:32:18.473Z,7.82
2022-11-19T03:34:47.606Z,7.85
2022-11-19T03:37:17.012Z,7.88
2022-11-19T03:39:44.461Z,7.91
2022-11-19T03:42:14.640Z,7.93
2022-11-19T03:44:48.555Z,7.93
2022-11-19T03:47:20.062Z,7.98
2022-11-19T03:49:51.893Z,7.96
2022-11-19T03:52:20.804Z,7.98
2022-11-19T03:54:47.661Z,8.06
2022-11-19T03:57:18.257Z,8.06
2022-11-19T03:59:45.932Z,8.05
2022-11-19T04:02:13.619Z,7.93
2022-11-19T04:04:40.227Z,8.07
2022-11-19T04:07:12.724Z,7.95
2022-11-19T04:09:40.359Z,8.08
2022-11-19T04:12:09.736Z,8.09
2022-11-19T04:14:36.224Z,7.99
2022-11-19T04:17:02.678Z,8.14
2022-11-19T04:19:29.170Z,8.16
2022-11-19T04:21:55.740Z,8.19
2022-11-19T04:24:22.230Z,8.19
2022-11-19T04:26:48.732Z,8.21
2022-11-19T04:29:15.198Z,8.18
2022-11-19T04:31:41.716Z,8.22
2022-11-19T04:34:08.348Z,8.22
2022-11-19T04:36:35.275Z,8.06
2022-11-19T04:39:01.936Z,8.10
2022-11-19T04:41:28.447Z,8.25
2022-11-19T04:43:54.956Z,8.07
2022-11-19T04:46:21.399Z,8.23
2022-11-19T04:48:48.047Z,8.26
2022-11-19T04:51:14.640Z,8.28
2022-11-19T04:53:41.442Z,8.29
2022-11-19T04:56:07.936Z,8.14
2022-11-19T04:58:35.087Z,8.27
2022-11-19T05:01:01.645Z,8.28
2022-11-19T05:03:28.385Z,8.29
2022-11-19T05:05:54.955Z,8.30
2022-11-19T05:08:21.666Z,8.29
2022-11-19T05:10:48.234Z,8.32
2022-11-19T05:13:14.857Z,8.31
2022-11-19T05:15:41.338Z,8.28
2022-11-19T05:18:07.840Z,8.29
2022-11-19T05:20:34.351Z,8.31
2022-11-19T05:23:00.908Z,8.32
2022-11-19T05:25:27.352Z,8.33
2022-11-19T05:27:53.809Z,8.35
2022-11-19T05:30:20.400Z,8.31
2022-11-19T05:32:47.803Z,8.36
2022-11-19T05:35:14.326Z,8.36
2022-11-19T05:37:40.799Z,8.31
2022-11-19T05:40:08.052Z,8.32
2022-11-19T05:42:34.517Z,8.31
2022-11-19T05:45:00.975Z,8.35
2022-11-19T05:47:27.453Z,8.37
2022-11-19T05:49:53.902Z,8.37
2022-11-19T05:52:20.377Z,8.35
2022-11-19T05:54:46.834Z,8.37
2022-11-19T05:57:13.351Z,8.39
2022-11-19T05:59:43.854Z,8.36
2022-11-19T06:02:10.625Z,8.42
2022-11-19T06:04:37.300Z,8.42
2022-11-19T06:07:04.250Z,8.42
2022-11-19T06:09:30.727Z,8.42
2022-11-19T06:11:57.510Z,8.39
2022-11-19T06:14:25.666Z,8.37
2022-11-19T06:16:55.118Z,8.40
2022-11-19T06:19:22.585Z,8.44
2022-11-19T06:21:50.471Z,8.45
2022-11-19T06:24:17.343Z,8.44
2022-11-19T06:26:44.385Z,8.28
2022-11-19T06:29:13.818Z,8.40
2022-11-19T06:31:40.395Z,8.38
2022-11-19T06:34:07.477Z,8.35
2022-11-19T06:36:40.191Z,8.35
2022-11-19T06:39:08.654Z,8.41
2022-11-19T06:41:35.408Z,8.20
2022-11-19T06:44:01.914Z,8.40
2022-11-19T06:46:28.416Z,8.41
2022-11-19T06:48:54.870Z,8.41
2022-11-19T06:51:21.376Z,8.27
2022-11-19T06:53:47.791Z,8.42
2022-11-19T06:56:14.311Z,8.38
2022-11-19T06:58:40.847Z,8.40
2022-11-19T07:01:07.371Z,8.39
2022-11-19T07:03:33.960Z,8.38
2022-11-19T07:06:02.957Z,8.40
2022-11-19T07:08:33.503Z,8.41
2022-11-19T07:11:00.432Z,8.34
2022-11-19T07:13:46.852Z,8.23
2022-11-19T07:16:13.312Z,8.34
2022-11-19T07:18:39.739Z,8.39
2022-11-19T07:21:06.219Z,8.41
2022-11-19T07:23:32.672Z,8.40
2022-11-19T07:26:02.341Z,8.40
2022-11-19T07:28:28.779Z,8.42
2022-11-19T07:30:55.918Z,8.25
2022-11-19T07:33:22.489Z,8.43
2022-11-19T07:35:48.948Z,8.37
2022-11-19T07:38:15.426Z,8.41
2022-11-19T07:40:41.861Z,8.22
2022-11-19T07:43:08.288Z,8.43
2022-11-19T07:45:37.753Z,8.39
2022-11-19T07:48:04.314Z,8.31
2022-11-19T07:50:30.799Z,8.42
2022-11-19T07:53:00.283Z,8.44
2022-11-19T07:55:26.759Z,8.44
2022-11-19T07:57:53.876Z,8.46
2022-11-19T08:00:20.829Z,8.41
2022-11-19T08:02:47.274Z,8.48
2022-11-19T08:05:13.789Z,8.48
2022-11-19T08:07:40.362Z,8.50
2022-11-19T08:10:07.525Z,8.51
2022-11-19T08:12:34.130Z,8.38
2022-11-19T08:15:00.595Z,8.53
2022-11-19T08:17:45.415Z,8.56
2022-11-19T08:20:11.998Z,8.42
2022-11-19T08:22:40.615Z,8.58
2022-11-19T08:25:07.376Z,8.58
2022-11-19T08:27:33.950Z,8.57
2022-11-19T08:30:00.634Z,8.59
2022-11-19T08:32:27.085Z,8.64
2022-11-19T08:34:53.592Z,8.56
2022-11-19T08:37:20.225Z,8.63
2022-11-19T08:39:46.739Z,8.67
2022-11-19T08:42:31.589Z,8.70
2022-11-19T08:44:58.607Z,8.69
2022-11-19T08:47:25.057Z,8.71
2022-11-19T08:49:51.560Z,8.77
2022-11-19T08:52:17.997Z,8.79
2022-11-19T08:54:44.461Z,8.82
2022-11-19T08:57:10.956Z,8.83
2022-11-19T08:59:37.409Z,8.84
2022-11-19T09:02:03.882Z,8.91
2022-11-19T09:04:30.333Z,8.95
2022-11-19T09:06:57.580Z,8.72
2022-11-19T09:09:24.124Z,9.00
2022-11-19T09:11:50.615Z,8.88
2022-11-19T09:14:17.449Z,9.04
2022-11-19T09:16:44.143Z,9.08
2022-11-19T09:19:10.631Z,9.11
2022-11-19T09:21:37.112Z,9.02
2022-11-19T09:24:03.807Z,9.12
2022-11-19T09:26:30.302Z,9.02
2022-11-19T09:28:56.721Z,9.19
2022-11-19T09:31:23.312Z,9.21
2022-11-19T09:33:51.810Z,9.29
2022-11-19T09:36:19.979Z,9.32
2022-11-19T09:38:47.876Z,9.37
2022-11-19T09:41:36.834Z,9.40
2022-11-19T09:44:28.755Z,9.47
2022-11-19T09:47:04.355Z,9.52
2022-11-19T09:49:45.560Z,9.56
2022-11-19T09:52:18.595Z,9.65
2022-11-19T09:54:49.849Z,9.58
2022-11-19T09:57:38.740Z,9.78
2022-11-19T10:00:07.287Z,9.85
2022-11-19T10:02:34.770Z,9.90
2022-11-19T10:05:03.315Z,9.94
2022-11-19T10:07:38.918Z,10.03
2022-11-19T10:10:22.207Z,10.02
2022-11-19T10:13:18.499Z,10.10
2022-11-19T10:16:12.755Z,10.13
2022-11-19T10:18:57.327Z,10.18
2022-11-19T10:21:48.983Z,10.20
2022-11-19T10:24:24.735Z,10.09
2022-11-19T10:27:01.954Z,10.23
2022-11-19T10:29:37.093Z,10.23
2022-11-19T10:32:25.492Z,10.36
2022-11-19T10:34:58.501Z,10.31
2022-11-19T10:37:30.338Z,10.33
2022-11-19T10:40:13.224Z,10.50
2022-11-19T10:42:50.026Z,10.56
2022-11-19T10:45:25.434Z,10.58
2022-11-19T10:48:24.286Z,10.60
2022-11-19T10:50:52.141Z,10.69
2022-11-19T10:53:29.647Z,10.81
2022-11-19T10:56:03.593Z,10.92
2022-11-19T10:58:53.110Z,10.96
2022-11-19T11:01:30.054Z,11.01
2022-11-19T11:04:13.927Z,11.12
2022-11-19T11:06:58.378Z,11.14
2022-11-19T11:09:39.469Z,11.25
2022-11-19T11:12:44.929Z,11.32
2022-11-19T11:15:17.327Z,11.37
2022-11-19T11:17:46.738Z,11.33
2022-11-19T11:20:16.991Z,11.40
2022-11-19T11:22:45.480Z,11.45
2022-11-19T11:25:32.182Z,11.43
2022-11-19T11:28:14.271Z,11.41
2022-11-19T11:30:58.480Z,11.48
2022-11-19T11:33:24.986Z,11.55
2022-11-19T11:35:54.855Z,11.56
2022-11-19T11:38:24.121Z,11.43
2022-11-19T11:44:01.846Z,11.66
2022-11-19T11:46:45.886Z,11.58
2022-11-19T11:49:23.794Z,11.71
2022-11-19T11:52:01.367Z,11.71
2022-11-19T11:54:27.865Z,11.73
2022-11-19T11:57:03.209Z,11.72
2022-11-19T11:59:31.054Z,11.70
2022-11-19T12:02:04.210Z,11.64
2022-11-19T12:04:31.524Z,11.61
2022-11-19T12:07:24.398Z,11.59
2022-11-19T12:10:03.435Z,11.63
2022-11-19T12:12:50.357Z,11.55
2022-11-19T12:15:54.475Z,11.63
2022-11-19T12:18:36.811Z,11.61
2022-11-19T12:21:12.182Z,11.55
2022-11-19T12:23:44.678Z,11.55
2022-11-19T12:26:17.070Z,11.57
2022-11-19T12:29:12.288Z,11.59
2022-11-19T12:31:47.438Z,11.61
2022-11-19T12:34:19.961Z,11.53
2022-11-19T12:37:01.030Z,11.55
2022-11-19T12:39:46.963Z,11.51
2022-11-19T12:42:32.523Z,11.50
2022-11-19T12:45:02.002Z,11.43
2022-11-19T12:47:45.142Z,11.44
2022-11-19T12:50:16.562Z,11.42
2022-11-19T12:53:01.008Z,11.42
2022-11-19T12:55:46.084Z,11.42
2022-11-19T12:58:32.232Z,11.26
2022-11-19T13:01:04.016Z,11.32
2022-11-19T13:03:36.534Z,11.43
2022-11-19T13:06:08.278Z,11.41
2022-11-19T13:08:43.676Z,11.21
2022-11-19T13:11:15.934Z,11.41
2022-11-19T13:13:48.268Z,11.45
2022-11-19T13:16:21.384Z,11.48
2022-11-19T13:18:56.757Z,11.37
2022-11-19T13:21:46.019Z,11.52
2022-11-19T13:24:27.669Z,11.56
2022-11-19T13:26:57.571Z,11.58
2022-11-19T13:29:42.792Z,11.59
2022-11-19T13:32:17.720Z,11.57
2022-11-19T13:34:50.233Z,11.62
2022-11-19T13:37:33.536Z,11.64
2022-11-19T13:40:30.570Z,11.70
2022-11-19T13:43:33.196Z,11.64
2022-11-19T13:46:20.370Z,11.59
2022-11-19T13:48:58.475Z,11.54
2022-11-19T13:51:32.052Z,11.52
2022-11-19T13:54:02.890Z,11.46
2022-11-19T13:56:48.383Z,11.52
2022-11-19T13:59:30.175Z,11.50
2022-11-19T14:02:34.297Z,11.54
2022-11-19T14:05:25.111Z,11.51
2022-11-19T14:08:20.253Z,11.54
2022-11-19T14:10:56.576Z,11.52
2022-11-19T14:13:43.417Z,11.51
2022-11-19T14:16:40.861Z,11.57
2022-11-19T14:19:32.278Z,11.57
2022-11-19T14:22:19.017Z,11.63
2022-11-19T14:25:03.745Z,11.63
2022-11-19T14:27:34.331Z,11.55
2022-11-19T14:30:04.133Z,11.48
2022-11-19T14:32:46.928Z,11.39
2022-11-19T14:35:28.797Z,11.33
2022-11-19T14:38:04.194Z,11.24
2022-11-19T14:40:33.383Z,10.94
2022-11-19T14:43:18.455Z,11.14
2022-11-19T14:46:03.260Z,11.11
2022-11-19T14:48:50.555Z,11.06
2022-11-19T14:51:26.837Z,11.03
2022-11-19T14:54:04.556Z,11.05
2022-11-19T14:56:33.855Z,11.02
2022-11-19T14:59:15.804Z,11.00
2022-11-19T15:02:26.864Z,10.93
2022-11-19T15:05:02.195Z,10.65
2022-11-19T15:07:38.461Z,10.92
2022-11-19T15:10:14.061Z,10.91
2022-11-19T15:12:43.501Z,10.93
2022-11-19T15:15:25.044Z,10.92
2022-11-19T15:18:02.095Z,10.91
2022-11-19T15:20:53.830Z,10.85
2022-11-19T15:23:23.300Z,10.83
2022-11-19T15:26:14.552Z,10.77
2022-11-19T15:29:06.147Z,10.69
2022-11-19T15:31:56.748Z,10.62
2022-11-19T15:35:03.975Z,10.51
2022-11-19T15:37:57.797Z,10.40
2022-11-19T15:40:30.877Z,10.31
2022-11-19T15:43:05.003Z,10.21
2022-11-19T15:45:51.758Z,10.10
2022-11-19T15:48:24.049Z,10.03
2022-11-19T15:50:51.895Z,9.95
2022-11-19T15:53:19.384Z,9.81
2022-11-19T15:55:53.498Z,9.74
2022-11-19T15:58:25.257Z,9.68
2022-11-19T16:00:53.783Z,9.60
2022-11-19T16:03:21.261Z,9.52
2022-11-19T16:06:00.874Z,9.41
2022-11-19T16:08:27.561Z,9.36
2022-11-19T16:11:19.942Z,9.28
2022-11-19T16:14:12.895Z,9.21
2022-11-19T16:16:58.307Z,9.14
2022-11-19T16:19:24.875Z,9.03
2022-11-19T16:21:56.475Z,8.96
2022-11-19T16:24:43.699Z,8.89
2022-11-19T16:27:12.949Z,8.72
2022-11-19T16:29:41.696Z,8.80
2022-11-19T16:32:08.318Z,8.67
2022-11-19T16:34:37.140Z,8.64
2022-11-19T16:37:03.980Z,8.62
2022-11-19T16:39:33.348Z,8.55
2022-11-19T16:42:22.343Z,8.49
2022-11-19T16:44:53.032Z,8.45
2022-11-19T16:47:25.592Z,8.40
2022-11-19T16:49:51.996Z,8.33
2022-11-19T16:52:34.376Z,8.25
2022-11-19T16:55:02.183Z,8.06
2022-11-19T16:57:29.996Z,8.13
2022-11-19T17:00:04.289Z,8.06
2022-11-19T17:02:37.423Z,7.98
2022-11-19T17:05:17.331Z,7.92
2022-11-19T17:07:48.013Z,7.85
2022-11-19T17:10:31.866Z,7.77
2022-11-19T17:13:03.901Z,7.68
2022-11-19T17:15:38.662Z,7.46
2022-11-19T17:18:26.920Z,7.51
2022-11-19T17:21:14.235Z,7.41
2022-11-19T17:23:48.772Z,7.35
2022-11-19T17:26:18.196Z,7.27
2022-11-19T17:28:48.981Z,7.19
2022-11-19T17:31:19.891Z,7.11
2022-11-19T17:33:56.023Z,7.04
2022-11-19T17:36:25.696Z,6.96
2022-11-19T17:38:52.674Z,6.87
2022-11-19T17:41:42.519Z,6.80
2022-11-19T17:44:31.449Z,6.73
2022-11-19T17:46:58.851Z,6.66
2022-11-19T17:49:25.337Z,6.60
2022-11-19T17:51:52.465Z,6.55
2022-11-19T17:54:19.642Z,6.35
2022-11-19T17:56:46.400Z,6.46
2022-11-19T17:59:12.883Z,6.40
2022-11-19T18:01:39.402Z,6.33
2022-11-19T18:04:05.839Z,6.32
2022-11-19T18:06:33.581Z,6.29
2022-11-19T18:09:00.029Z,6.27
2022-11-19T18:11:26.765Z,6.22
2022-11-19T18:13:55.253Z,6.22
2022-11-19T18:16:25.187Z,6.16
2022-11-19T18:18:52.331Z,6.24
2022-11-19T18:21:21.332Z,6.23
2022-11-19T18:23:49.183Z,6.26
2022-11-19T18:26:24.629Z,6.25
2022-11-19T18:28:51.701Z,6.27
2022-11-19T18:31:20.827Z,6.32
2022-11-19T18:33:48.051Z,6.13
2022-11-19T18:36:15.416Z,6.28
2022-11-19T18:38:42.204Z,6.26
2022-11-19T18:41:13.817Z,6.12
2022-11-19T18:43:59.308Z,6.19
2022-11-19T18:46:26.148Z,6.13
2022-11-19T18:48:53.670Z,6.09
2022-11-19T18:51:20.796Z,6.11
2022-11-19T18:53:47.537Z,6.09
2022-11-19T18:56:18.753Z,6.06
2022-11-19T18:58:45.615Z,6.02
2022-11-19T19:01:13.063Z,5.97
2022-11-19T19:03:39.874Z,5.91
2022-11-19T19:06:08.252Z,5.88
2022-11-19T19:08:35.099Z,5.53
2022-11-19T19:11:24.281Z,5.79
2022-11-19T19:13:50.760Z,5.74
2022-11-19T19:16:17.918Z,5.54
2022-11-19T19:18:44.389Z,5.68
2022-11-19T19:21:15.545Z,5.66
2022-11-19T19:23:42.521Z,5.63
2022-11-19T19:26:11.133Z,5.59
2022-11-19T19:28:37.691Z,5.55
2022-11-19T19:31:04.348Z,5.56
2022-11-19T19:33:31.529Z,5.55
2022-11-19T19:35:58.256Z,5.51
2022-11-19T19:38:24.846Z,5.49
2022-11-19T19:40:51.927Z,5.48
2022-11-19T19:43:18.374Z,5.44
2022-11-19T19:45:44.908Z,5.41
2022-11-19T19:48:11.393Z,5.39
2022-11-19T19:50:37.841Z,5.35
2022-11-19T19:53:04.825Z,5.28
2022-11-19T19:55:31.336Z,5.26
2022-11-19T19:57:57.841Z,5.18
2022-11-19T20:00:24.287Z,5.24
2022-11-19T20:02:50.770Z,5.22
2022-11-19T20:05:17.274Z,5.19
2022-11-19T20:07:43.806Z,5.17
2022-11-19T20:10:10.364Z,5.14
2022-11-19T20:12:55.441Z,4.98
2022-11-19T20:15:21.875Z,5.08
2022-11-19T20:17:48.342Z,5.05
2022-11-19T20:20:14.886Z,5.03
2022-11-19T20:22:41.313Z,5.01
2022-11-19T20:25:08.005Z,5.01
2022-11-19T20:27:34.483Z,4.97
2022-11-19T20:30:00.926Z,4.94
2022-11-19T20:32:27.371Z,4.91
2022-11-19T20:34:53.826Z,4.91
2022-11-19T20:37:20.267Z,4.90
2022-11-19T20:39:46.710Z,4.83
2022-11-19T20:42:31.884Z,4.65
2022-11-19T20:44:58.918Z,4.81
2022-11-19T20:47:25.371Z,4.74
2022-11-19T20:49:51.918Z,4.74
2022-11-19T20:52:21.325Z,4.71
2022-11-19T20:54:49.591Z,4.68
2022-11-19T20:57:18.057Z,4.64
2022-11-19T20:59:44.970Z,4.60
2022-11-19T21:02:11.618Z,4.58
2022-11-19T21:04:38.416Z,4.54
2022-11-19T21:07:05.709Z,4.49
2022-11-19T21:09:32.296Z,4.49
2022-11-19T21:11:58.888Z,4.47
2022-11-19T21:14:25.381Z,4.46
2022-11-19T21:16:51.843Z,4.46
2022-11-19T21:19:18.546Z,4.44
2022-11-19T21:21:45.652Z,4.48
2022-11-19T21:24:12.327Z,4.48
2022-11-19T21:26:38.865Z,4.50
2022-11-19T21:29:05.422Z,4.49
2022-11-19T21:31:42.165Z,4.47
2022-11-19T21:34:14.051Z,4.49
2022-11-19T21:36:41.904Z,4.49
2022-11-19T21:39:09.739Z,4.43
2022-11-19T21:41:36.525Z,4.49
2022-11-19T21:44:04.352Z,4.50
2022-11-19T21:46:31.127Z,4.48
2022-11-19T21:48:57.780Z,4.45
2022-11-19T21:51:25.161Z,4.44
2022-11-19T21:53:57.990Z,4.45
2022-11-19T21:56:26.128Z,4.42
2022-11-19T21:58:52.755Z,4.35
2022-11-19T22:01:19.555Z,4.38
2022-11-19T22:03:46.065Z,4.31
2022-11-19T22:06:12.718Z,4.32
2022-11-19T22:08:41.293Z,4.28
2022-11-19T22:11:28.740Z,4.23
2022-11-19T22:13:59.336Z,4.14
2022-11-19T22:16:26.133Z,4.15
2022-11-19T22:18:52.600Z,4.10
2022-11-19T22:21:19.103Z,4.07
2022-11-19T22:23:46.288Z,3.91
2022-11-19T22:26:13.073Z,3.97
2022-11-19T22:28:39.792Z,3.99
2022-11-19T22:31:06.413Z,3.94
2022-11-19T22:33:35.086Z,3.90
2022-11-19T22:36:09.276Z,3.90
2022-11-19T22:38:37.774Z,3.88
2022-11-19T22:41:07.762Z,3.85
2022-11-19T22:43:35.644Z,3.82
2022-11-19T22:46:02.260Z,3.85
2022-11-19T22:48:29.821Z,3.61
2022-11-19T22:50:56.283Z,3.94
2022-11-19T22:53:23.347Z,3.97
2022-11-19T22:55:49.855Z,4.00
2022-11-19T22:58:16.342Z,4.02
2022-11-19T23:00:48.929Z,4.06
2022-11-19T23:03:16.246Z,4.09
2022-11-19T23:05:49.436Z,4.03
2022-11-19T23:08:15.901Z,4.11
2022-11-19T23:10:42.452Z,4.09
2022-11-19T23:13:29.622Z,4.21
2022-11-19T23:16:09.404Z,4.07
2022-11-19T23:18:41.732Z,4.24
2022-11-19T23:21:16.401Z,4.28
2022-11-19T23:23:42.934Z,4.29
2022-11-19T23:26:11.717Z,4.34
2022-11-19T23:28:38.531Z,4.37
2022-11-19T23:31:18.427Z,4.41
2022-11-19T23:33:45.883Z,4.42
2022-11-19T23:36:23.942Z,4.45
2022-11-19T23:38:51.182Z,4.46
2022-11-19T23:41:19.036Z,4.48
2022-11-19T23:43:46.766Z,4.50
2022-11-19T23:46:14.766Z,4.54
2022-11-19T23:48:43.213Z,4.56
2022-11-19T23:51:13.023Z,4.58
2022-11-19T23:53:39.716Z,4.61
2022-11-19T23:56:06.635Z,4.63
2022-11-19T23:58:34.444Z,4.63
